Time;durP1;ratioP1;P1;durP2;ratioP2;P2;SDS_P1;SDS_P2;PMS_P1;PMS_P2;Temp;Humidity;BMP_temperature;BMP_pressure;BME280_temperature;BME280_humidity;BME280_pressure;Samples;Min_cycle;Max_cycle;Signal;HPM_P1;HPM_P2
2022/01/13 00:00:59;;;;;;;1.88;1.02;;;;;;;;;;5001623;28;20014;-72
2022/01/13 00:03:25;;;;;;;1.38;0.77;;;;;;;;;;5017840;28;20082;-70
2022/01/13 00:05:50;;;;;;;2.00;0.85;;;;;;;;;;5018552;28;20018;-71
2022/01/13 00:08:16;;;;;;;2.72;0.68;;;;;;;;;;5018165;28;20091;-72
2022/01/13 00:10:41;;;;;;;5.13;1.02;;;;;;;;;;5018814;28;20018;-72
2022/01/13 00:13:09;;;;;;;1.98;0.60;;;;;;;;;;5017728;28;20018;-72
2022/01/13 00:15:45;;;;;;;2.55;0.55;;;;;;;;;;5018131;28;20030;-71
2022/01/13 00:18:16;;;;;;;1.73;0.43;;;;;;;;;;5001438;28;20018;-71
2022/01/13 00:26:14;;;;;;;4.15;1.25;;;;;;;;;;5017960;28;20074;-72
2022/01/13 00:28:39;;;;;;;3.17;1.10;;;;;;;;;;4982364;28;20015;-72
2022/01/13 00:31:06;;;;;;;4.00;0.60;;;;;;;;;;5010106;28;20033;-71
2022/01/13 00:33:32;;;;;;;1.95;0.88;;;;;;;;;;5033782;28;20018;-73
2022/01/13 00:36:00;;;;;;;1.88;0.98;;;;;;;;;;5017392;28;20030;-72
2022/01/13 00:38:27;;;;;;;2.78;1.02;;;;;;;;;;5018004;28;20042;-72
2022/01/13 00:40:52;;;;;;;1.88;0.50;;;;;;;;;;5017188;28;20030;-73
2022/01/13 00:43:18;;;;;;;1.70;0.70;;;;;;;;;;5017480;28;20028;-72
2022/01/13 00:45:46;;;;;;;4.70;2.05;;;;;;;;;;5017669;28;20025;-73
2022/01/13 00:48:11;;;;;;;2.33;0.40;;;;;;;;;;5017086;28;20069;-72
2022/01/13 00:50:36;;;;;;;0.38;0.38;;;;;;;;;;5033390;28;20018;-72
2022/01/13 00:53:02;;;;;;;2.28;0.50;;;;;;;;;;5017300;28;20034;-70
2022/01/13 00:55:44;;;;;;;2.05;0.60;;;;;;;;;;5017648;28;20042;-72
2022/01/13 00:58:09;;;;;;;0.32;0.32;;;;;;;;;;5017219;28;20011;-71
2022/01/13 01:00:34;;;;;;;5.70;0.60;;;;;;;;;;5016227;28;20021;-72
2022/01/13 01:03:00;;;;;;;0.98;0.35;;;;;;;;;;5017164;28;20034;-72
2022/01/13 01:05:25;;;;;;;0.77;0.40;;;;;;;;;;5000883;28;20077;-72
2022/01/13 01:07:50;;;;;;;2.03;0.40;;;;;;;;;;5017447;28;20031;-72
2022/01/13 01:10:16;;;;;;;0.95;0.45;;;;;;;;;;5017412;28;20011;-73
2022/01/13 01:12:41;;;;;;;1.00;0.40;;;;;;;;;;5017057;28;20018;-72
2022/01/13 01:15:07;;;;;;;3.83;0.70;;;;;;;;;;5017326;28;20029;-72
2022/01/13 01:17:35;;;;;;;2.28;0.80;;;;;;;;;;5017449;28;20023;-72
2022/01/13 01:20:06;;;;;;;2.00;0.47;;;;;;;;;;5017303;28;20022;-71
2022/01/13 01:22:41;;;;;;;3.63;0.65;;;;;;;;;;5017778;28;20074;-73
2022/01/13 01:27:44;;;;;;;6.72;1.73;;;;;;;;;;5017215;28;20010;-72
2022/01/13 01:30:22;;;;;;;3.67;1.20;;;;;;;;;;5017547;28;20090;-72
2022/01/13 01:32:47;;;;;;;6.63;1.10;;;;;;;;;;5017579;28;20015;-72
2022/01/13 01:35:15;;;;;;;3.20;0.70;;;;;;;;;;5011573;28;20037;-73
2022/01/13 01:37:42;;;;;;;1.95;0.60;;;;;;;;;;5005549;28;20018;-72
2022/01/13 01:40:08;;;;;;;2.72;1.13;;;;;;;;;;4999153;28;20025;-72
2022/01/13 01:42:34;;;;;;;3.53;1.58;;;;;;;;;;5016909;28;20014;-72
2022/01/13 01:45:00;;;;;;;4.40;1.15;;;;;;;;;;5017105;28;20022;-72
2022/01/13 01:47:30;;;;;;;2.47;0.60;;;;;;;;;;5033115;28;20056;-72
2022/01/13 01:49:59;;;;;;;1.02;0.57;;;;;;;;;;5017094;28;20018;-72
2022/01/13 01:52:27;;;;;;;3.35;0.60;;;;;;;;;;5020874;28;20079;-73
2022/01/13 01:54:53;;;;;;;1.65;0.20;;;;;;;;;;5021415;28;20038;-71
2022/01/13 01:57:21;;;;;;;4.18;0.50;;;;;;;;;;5020670;28;20093;-72
2022/01/13 01:59:46;;;;;;;1.92;0.50;;;;;;;;;;5003568;28;20050;-73
2022/01/13 02:02:14;;;;;;;1.27;0.43;;;;;;;;;;5020615;28;20014;-72
2022/01/13 02:04:40;;;;;;;1.75;0.50;;;;;;;;;;5021049;28;20010;-70
2022/01/13 02:07:07;;;;;;;2.05;0.60;;;;;;;;;;4992993;28;20026;-71
2022/01/13 02:09:36;;;;;;;0.63;0.50;;;;;;;;;;5020527;28;20014;-71
2022/01/13 02:12:06;;;;;;;0.93;0.50;;;;;;;;;;5020677;28;20019;-72
2022/01/13 02:14:35;;;;;;;6.30;0.82;;;;;;;;;;5019903;28;20021;-72
2022/01/13 02:17:07;;;;;;;0.95;0.50;;;;;;;;;;5003765;28;20033;-70
2022/01/13 02:19:34;;;;;;;1.58;0.50;;;;;;;;;;5003144;28;20038;-72
2022/01/13 02:22:00;;;;;;;2.85;0.70;;;;;;;;;;5020582;28;20014;-71
2022/01/13 02:24:26;;;;;;;6.43;0.70;;;;;;;;;;5020011;28;20024;-70
2022/01/13 02:26:52;;;;;;;0.80;0.50;;;;;;;;;;5020143;28;20018;-71
2022/01/13 02:29:17;;;;;;;4.05;0.82;;;;;;;;;;5020146;28;20018;-71
2022/01/13 02:31:43;;;;;;;7.32;0.90;;;;;;;;;;5020144;28;20078;-71
2022/01/13 02:34:08;;;;;;;3.45;0.57;;;;;;;;;;5019776;28;20034;-71
2022/01/13 02:36:34;;;;;;;1.17;0.50;;;;;;;;;;5020679;28;20018;-72
2022/01/13 02:39:04;;;;;;;7.88;1.02;;;;;;;;;;5002990;28;20025;-72
2022/01/13 02:41:29;;;;;;;5.05;0.70;;;;;;;;;;5020281;28;20271;-72
2022/01/13 02:43:57;;;;;;;1.30;0.60;;;;;;;;;;5019828;28;20038;-71
2022/01/13 02:46:31;;;;;;;4.30;0.60;;;;;;;;;;5019558;28;20030;-72
2022/01/13 02:48:58;;;;;;;4.35;0.93;;;;;;;;;;4998943;28;20018;-71
2022/01/13 02:51:23;;;;;;;6.50;0.70;;;;;;;;;;5018853;28;20082;-70
2022/01/13 02:53:48;;;;;;;3.65;0.60;;;;;;;;;;5019537;28;20057;-71
2022/01/13 02:56:14;;;;;;;3.80;0.73;;;;;;;;;;5002267;28;20011;-70
2022/01/13 02:58:40;;;;;;;3.75;0.60;;;;;;;;;;5019840;28;20041;-71
2022/01/13 03:01:06;;;;;;;2.58;0.70;;;;;;;;;;5019462;28;20036;-70
2022/01/13 03:03:34;;;;;;;4.78;0.85;;;;;;;;;;5001996;28;20022;-72
2022/01/13 03:06:08;;;;;;;5.28;0.90;;;;;;;;;;5019310;28;20045;-71
2022/01/13 03:08:34;;;;;;;3.25;0.80;;;;;;;;;;5019357;28;20015;-72
2022/01/13 03:11:00;;;;;;;3.40;0.73;;;;;;;;;;5019177;28;20026;-72
2022/01/13 03:13:28;;;;;;;4.30;0.82;;;;;;;;;;5018781;28;20006;-71
2022/01/13 03:15:54;;;;;;;2.70;1.10;;;;;;;;;;5019937;28;20049;-72
2022/01/13 03:18:19;;;;;;;5.50;0.85;;;;;;;;;;5019093;28;20014;-72
2022/01/13 03:20:44;;;;;;;3.78;0.65;;;;;;;;;;5019451;28;20069;-71
2022/01/13 03:23:14;;;;;;;7.13;1.23;;;;;;;;;;5019315;28;20044;-71
2022/01/13 03:25:43;;;;;;;9.77;1.10;;;;;;;;;;5018729;28;20025;-70
2022/01/13 03:28:14;;;;;;;4.57;0.80;;;;;;;;;;5034827;28;20021;-71
2022/01/13 03:30:39;;;;;;;2.13;0.80;;;;;;;;;;5002180;28;20089;-72
2022/01/13 03:33:06;;;;;;;2.63;0.65;;;;;;;;;;5018965;28;20025;-72
2022/01/13 03:35:31;;;;;;;3.58;0.93;;;;;;;;;;5019028;28;20062;-71
2022/01/13 03:37:58;;;;;;;5.00;0.80;;;;;;;;;;5026422;28;20026;-72
2022/01/13 03:40:24;;;;;;;3.33;0.80;;;;;;;;;;5018726;28;20118;-71
2022/01/13 03:42:52;;;;;;;2.92;0.90;;;;;;;;;;5019076;28;20049;-72
2022/01/13 03:45:18;;;;;;;6.88;1.30;;;;;;;;;;5019354;28;20014;-71
2022/01/13 03:47:43;;;;;;;5.97;1.65;;;;;;;;;;5018782;28;20064;-71
2022/01/13 03:50:09;;;;;;;4.00;0.95;;;;;;;;;;5019306;28;20029;-72
2022/01/13 03:52:34;;;;;;;10.75;1.25;;;;;;;;;;5019185;28;20010;-72
2022/01/13 03:55:50;;;;;;;3.22;1.00;;;;;;;;;;5018723;28;20021;-71
2022/01/13 03:58:37;;;;;;;4.22;1.00;;;;;;;;;;5017757;28;20023;-72
2022/01/13 04:01:51;;;;;;;6.57;1.30;;;;;;;;;;5017377;28;20033;-72
2022/01/13 04:04:17;;;;;;;9.65;1.20;;;;;;;;;;5018394;28;20045;-71
2022/01/13 04:06:43;;;;;;;3.78;1.05;;;;;;;;;;5018580;28;20026;-72
2022/01/13 04:09:29;;;;;;;9.07;1.10;;;;;;;;;;5018081;28;20022;-71
2022/01/13 04:11:54;;;;;;;4.38;1.17;;;;;;;;;;5017360;28;20086;-71
2022/01/13 04:14:28;;;;;;;7.57;1.10;;;;;;;;;;5017928;28;20806;-71
2022/01/13 04:16:54;;;;;;;5.68;1.15;;;;;;;;;;5018109;28;20010;-69
2022/01/13 04:19:19;;;;;;;6.93;0.90;;;;;;;;;;5001098;28;20049;-72
2022/01/13 04:21:45;;;;;;;3.45;1.08;;;;;;;;;;5018689;28;20327;-72
2022/01/13 04:24:11;;;;;;;5.95;1.05;;;;;;;;;;5000639;28;20054;-71
2022/01/13 04:26:39;;;;;;;6.00;1.48;;;;;;;;;;5001173;28;20018;-72
2022/01/13 04:31:38;;;;;;;2.25;1.00;;;;;;;;;;5016307;28;20014;-71
2022/01/13 04:34:03;;;;;;;4.03;0.75;;;;;;;;;;5017379;28;20078;-72
2022/01/13 04:36:29;;;;;;;5.22;1.10;;;;;;;;;;5000963;28;20025;-71
2022/01/13 04:38:54;;;;;;;4.57;1.13;;;;;;;;;;5017938;28;20006;-72
2022/01/13 04:41:29;;;;;;;4.80;0.98;;;;;;;;;;5017676;28;20090;-72
2022/01/13 04:43:56;;;;;;;4.53;0.85;;;;;;;;;;5017170;28;20014;-73
2022/01/13 04:46:21;;;;;;;7.15;1.30;;;;;;;;;;5016165;28;20022;-71
2022/01/13 04:48:46;;;;;;;5.38;0.93;;;;;;;;;;5017477;28;20014;-72
2022/01/13 04:51:12;;;;;;;5.43;1.00;;;;;;;;;;5017865;28;20014;-71
2022/01/13 04:53:38;;;;;;;5.10;0.90;;;;;;;;;;5033215;28;20010;-71
2022/01/13 04:56:10;;;;;;;3.88;1.00;;;;;;;;;;5016359;28;20018;-72
2022/01/13 04:58:36;;;;;;;4.88;1.30;;;;;;;;;;5017697;28;20029;-73
2022/01/13 05:01:01;;;;;;;2.10;0.70;;;;;;;;;;4999830;28;20022;-72
2022/01/13 05:03:26;;;;;;;3.65;0.95;;;;;;;;;;5016440;28;20022;-70
2022/01/13 05:05:52;;;;;;;4.57;0.98;;;;;;;;;;5017380;28;20014;-71
2022/01/13 05:08:17;;;;;;;3.20;0.75;;;;;;;;;;5016979;28;20025;-71
2022/01/13 05:10:43;;;;;;;4.90;0.85;;;;;;;;;;5016899;28;20033;-71
2022/01/13 05:13:10;;;;;;;3.08;1.08;;;;;;;;;;5033255;28;20018;-72
2022/01/13 05:15:38;;;;;;;5.05;0.88;;;;;;;;;;5016641;28;20041;-71
2022/01/13 05:18:13;;;;;;;6.22;1.00;;;;;;;;;;5017055;28;20010;-71
2022/01/13 05:20:41;;;;;;;4.72;1.30;;;;;;;;;;4999983;28;20007;-71
2022/01/13 05:23:08;;;;;;;5.25;1.23;;;;;;;;;;5016774;28;20014;-70
2022/01/13 05:25:33;;;;;;;3.65;1.00;;;;;;;;;;5017929;28;20070;-71
2022/01/13 05:27:59;;;;;;;6.10;0.90;;;;;;;;;;5020316;28;20030;-71
2022/01/13 05:30:24;;;;;;;3.03;0.90;;;;;;;;;;5020718;28;20348;-71
2022/01/13 05:32:49;;;;;;;5.40;1.20;;;;;;;;;;5021902;28;20025;-71
2022/01/13 05:35:18;;;;;;;6.70;1.77;;;;;;;;;;5020545;28;20014;-69
2022/01/13 05:37:45;;;;;;;3.35;0.90;;;;;;;;;;5019821;28;20101;-71
2022/01/13 05:40:13;;;;;;;9.50;1.30;;;;;;;;;;5019831;28;20029;-72
2022/01/13 05:42:40;;;;;;;8.02;1.00;;;;;;;;;;5017813;28;20026;-72
2022/01/13 05:45:13;;;;;;;9.20;1.30;;;;;;;;;;5001431;28;20078;-72
2022/01/13 05:47:40;;;;;;;;;;;;;;;;;;5002277;28;20022;-71
2022/01/13 05:50:06;;;;;;;7.45;1.27;;;;;;;;;;4984007;28;19913;-71
2022/01/13 05:52:31;;;;;;;4.95;0.80;;;;;;;;;;5001017;28;20023;-71
2022/01/13 05:54:56;;;;;;;3.83;1.10;;;;;;;;;;5001205;28;20042;-71
2022/01/13 05:57:22;;;;;;;6.18;1.30;;;;;;;;;;5001203;28;20014;-72
2022/01/13 05:59:47;;;;;;;6.80;1.20;;;;;;;;;;5001247;28;20007;-71
2022/01/13 06:02:13;;;;;;;6.70;1.25;;;;;;;;;;5001117;28;20034;-72
2022/01/13 06:04:38;;;;;;;7.03;2.05;;;;;;;;;;5001100;28;20014;-71
2022/01/13 06:07:03;;;;;;;5.55;1.50;;;;;;;;;;4984736;28;20021;-72
2022/01/13 06:09:29;;;;;;;7.30;1.45;;;;;;;;;;5001326;28;20014;-72
2022/01/13 06:12:01;;;;;;;7.35;1.10;;;;;;;;;;5001147;28;20019;-73
2022/01/13 06:14:27;;;;;;;6.47;1.20;;;;;;;;;;5000532;28;20011;-72
2022/01/13 06:16:52;;;;;;;7.90;1.60;;;;;;;;;;5001429;28;20073;-73
2022/01/13 06:19:18;;;;;;;9.45;1.90;;;;;;;;;;5000576;28;20019;-71
2022/01/13 06:21:43;;;;;;;7.72;1.20;;;;;;;;;;5001099;28;20074;-72
2022/01/13 06:24:09;;;;;;;5.22;1.17;;;;;;;;;;5001202;28;20107;-71
2022/01/13 06:26:34;;;;;;;7.82;1.52;;;;;;;;;;5001169;28;20006;-71
2022/01/13 06:28:59;;;;;;;13.25;1.40;;;;;;;;;;5001049;28;20010;-72
2022/01/13 06:31:25;;;;;;;9.25;1.30;;;;;;;;;;5000017;28;20011;-72
2022/01/13 06:33:50;;;;;;;9.93;1.75;;;;;;;;;;5000613;28;20037;-70
2022/01/13 06:36:16;;;;;;;9.38;1.20;;;;;;;;;;5001139;28;20033;-71
2022/01/13 06:38:48;;;;;;;5.57;1.33;;;;;;;;;;4982211;28;20030;-71
2022/01/13 06:41:14;;;;;;;8.38;1.85;;;;;;;;;;5006880;28;20082;-71
2022/01/13 06:43:39;;;;;;;5.25;1.30;;;;;;;;;;5020045;28;20018;-72
2022/01/13 06:46:05;;;;;;;6.80;1.27;;;;;;;;;;5018806;28;20074;-70
2022/01/13 06:48:30;;;;;;;11.80;1.50;;;;;;;;;;5032651;28;20041;-72
2022/01/13 06:50:55;;;;;;;12.43;1.90;;;;;;;;;;5019466;28;20019;-70
2022/01/13 06:53:21;;;;;;;12.55;1.73;;;;;;;;;;5001230;28;20026;-71
2022/01/13 06:55:47;;;;;;;12.43;1.52;;;;;;;;;;5020455;28;20018;-71
2022/01/13 06:58:12;;;;;;;7.00;1.50;;;;;;;;;;5019396;28;20010;-72
2022/01/13 07:00:38;;;;;;;8.60;1.45;;;;;;;;;;5019196;28;20018;-71
2022/01/13 07:03:04;;;;;;;6.90;1.33;;;;;;;;;;5001782;28;20014;-71
2022/01/13 07:05:30;;;;;;;3.63;0.98;;;;;;;;;;5018766;28;20032;-72
2022/01/13 07:07:55;;;;;;;7.93;1.60;;;;;;;;;;5018259;28;20055;-72
2022/01/13 07:10:21;;;;;;;4.88;1.13;;;;;;;;;;5001026;28;20022;-71
2022/01/13 07:12:46;;;;;;;9.77;1.50;;;;;;;;;;5019319;28;20046;-72
2022/01/13 07:15:12;;;;;;;8.93;1.20;;;;;;;;;;5019444;28;20094;-72
2022/01/13 07:17:38;;;;;;;7.22;1.00;;;;;;;;;;5017536;28;20019;-72
2022/01/13 07:20:04;;;;;;;9.07;1.50;;;;;;;;;;5018853;28;20030;-71
2022/01/13 07:22:30;;;;;;;9.50;1.50;;;;;;;;;;5018245;28;20017;-71
2022/01/13 07:24:55;;;;;;;11.45;2.00;;;;;;;;;;5019300;28;20018;-73
2022/01/13 07:27:21;;;;;;;7.15;2.05;;;;;;;;;;5002202;28;20030;-72
2022/01/13 07:29:48;;;;;;;14.80;1.77;;;;;;;;;;5019230;28;20014;-72
2022/01/13 07:32:15;;;;;;;11.65;1.38;;;;;;;;;;5019472;28;20080;-72
2022/01/13 07:34:41;;;;;;;10.10;1.75;;;;;;;;;;5019344;28;20054;-72
2022/01/13 07:37:06;;;;;;;10.10;1.40;;;;;;;;;;5019044;28;20018;-71
2022/01/13 07:39:32;;;;;;;7.68;1.52;;;;;;;;;;5018653;28;20010;-71
2022/01/13 07:41:58;;;;;;;11.68;1.35;;;;;;;;;;5022095;28;20018;-72
2022/01/13 07:44:23;;;;;;;9.68;1.35;;;;;;;;;;4999966;28;20030;-71
2022/01/13 07:46:49;;;;;;;11.18;1.92;;;;;;;;;;4999780;28;20011;-71
2022/01/13 07:49:14;;;;;;;9.77;1.30;;;;;;;;;;4999270;28;20019;-73
2022/01/13 07:51:40;;;;;;;8.82;1.20;;;;;;;;;;5014879;28;20033;-71
2022/01/13 07:54:05;;;;;;;13.05;1.50;;;;;;;;;;5000078;28;20050;-72
2022/01/13 07:56:31;;;;;;;12.65;2.80;;;;;;;;;;5000069;28;20041;-72
2022/01/13 07:58:56;;;;;;;12.68;1.73;;;;;;;;;;4999508;28;20026;-71
2022/01/13 08:01:22;;;;;;;8.05;1.60;;;;;;;;;;4983039;28;20056;-72
2022/01/13 08:03:47;;;;;;;6.72;1.48;;;;;;;;;;4999642;28;20030;-72
2022/01/13 08:06:13;;;;;;;8.38;1.17;;;;;;;;;;4999460;28;20046;-72
2022/01/13 08:08:39;;;;;;;11.77;1.90;;;;;;;;;;4999819;28;20010;-71
2022/01/13 08:11:08;;;;;;;9.07;1.30;;;;;;;;;;4999599;28;20013;-71
2022/01/13 08:13:35;;;;;;;12.07;1.65;;;;;;;;;;4983108;28;20014;-71
2022/01/13 08:16:03;;;;;;;8.20;1.30;;;;;;;;;;4982993;28;20025;-71
2022/01/13 08:21:13;;;;;;;10.77;1.52;;;;;;;;;;4998842;28;20288;-71
2022/01/13 08:23:39;;;;;;;11.18;1.17;;;;;;;;;;4982266;28;20019;-71
2022/01/13 08:26:05;;;;;;;11.88;1.70;;;;;;;;;;4999404;28;20071;-71
2022/01/13 08:28:31;;;;;;;12.02;1.98;;;;;;;;;;4982692;28;20042;-72
2022/01/13 08:30:57;;;;;;;10.40;1.55;;;;;;;;;;4999629;28;20026;-72
2022/01/13 08:33:23;;;;;;;8.90;1.42;;;;;;;;;;4999262;28;20022;-72
2022/01/13 08:35:49;;;;;;;18.60;2.20;;;;;;;;;;4999106;28;20023;-71
2022/01/13 08:38:19;;;;;;;10.70;1.90;;;;;;;;;;4998881;28;20038;-72
2022/01/13 08:40:50;;;;;;;10.75;1.65;;;;;;;;;;5001759;28;20134;-71
2022/01/13 08:43:16;;;;;;;12.88;1.70;;;;;;;;;;5034610;28;20034;-72
2022/01/13 08:45:43;;;;;;;10.32;2.00;;;;;;;;;;5018479;28;20069;-72
2022/01/13 08:48:09;;;;;;;9.73;2.13;;;;;;;;;;5034406;28;20085;-71
2022/01/13 08:50:35;;;;;;;14.85;2.20;;;;;;;;;;5001335;28;20122;-71
2022/01/13 08:53:01;;;;;;;6.57;1.52;;;;;;;;;;5018458;28;20015;-72
2022/01/13 08:55:26;;;;;;;12.38;1.70;;;;;;;;;;5001374;28;20022;-73
2022/01/13 08:57:53;;;;;;;9.15;1.50;;;;;;;;;;5001373;28;20042;-72
2022/01/13 09:00:19;;;;;;;8.23;1.42;;;;;;;;;;5017349;28;20026;-72
2022/01/13 09:02:45;;;;;;;6.57;1.25;;;;;;;;;;5018503;28;20042;-72
2022/01/13 09:05:13;;;;;;;8.77;1.63;;;;;;;;;;5018337;28;20034;-71
2022/01/13 09:07:38;;;;;;;8.57;1.35;;;;;;;;;;5034257;28;20020;-72
2022/01/13 09:10:05;;;;;;;10.30;1.83;;;;;;;;;;5018084;28;20018;-71
2022/01/13 09:12:30;;;;;;;8.07;1.80;;;;;;;;;;5018278;28;20010;-72
2022/01/13 09:15:02;;;;;;;11.25;1.85;;;;;;;;;;5000940;28;20018;-70
2022/01/13 09:17:28;;;;;;;11.93;2.15;;;;;;;;;;4998733;28;20025;-72
2022/01/13 09:19:53;;;;;;;13.20;2.30;;;;;;;;;;4999017;28;20015;-72
2022/01/13 09:22:19;;;;;;;10.93;2.03;;;;;;;;;;5001419;28;20029;-72
2022/01/13 09:24:45;;;;;;;8.18;1.63;;;;;;;;;;5018080;28;20014;-71
2022/01/13 09:27:11;;;;;;;11.18;1.88;;;;;;;;;;5018006;28;20029;-72
2022/01/13 09:29:36;;;;;;;10.10;1.92;;;;;;;;;;5018617;28;20272;-72
2022/01/13 09:32:03;;;;;;;9.13;1.70;;;;;;;;;;5018455;28;20050;-72
2022/01/13 09:34:28;;;;;;;11.07;1.65;;;;;;;;;;5018148;28;20022;-72
2022/01/13 09:36:54;;;;;;;7.25;1.10;;;;;;;;;;5018151;28;20037;-71
2022/01/13 09:39:19;;;;;;;8.50;1.40;;;;;;;;;;5034018;28;20052;-72
2022/01/13 09:41:45;;;;;;;10.73;1.48;;;;;;;;;;5017420;28;20033;-72
2022/01/13 09:44:13;;;;;;;8.93;1.27;;;;;;;;;;5017903;28;20061;-71
2022/01/13 09:46:39;;;;;;;13.10;2.00;;;;;;;;;;5017933;28;20046;-71
2022/01/13 09:49:06;;;;;;;11.73;2.40;;;;;;;;;;5017756;28;20064;-71
2022/01/13 09:51:33;;;;;;;9.80;2.00;;;;;;;;;;5018114;28;20042;-72
2022/01/13 09:53:59;;;;;;;5.88;2.08;;;;;;;;;;5017740;28;20023;-72
2022/01/13 09:56:24;;;;;;;11.95;1.60;;;;;;;;;;5033525;28;20030;-72
2022/01/13 09:58:50;;;;;;;9.07;1.40;;;;;;;;;;5017767;28;20034;-72
2022/01/13 10:01:15;;;;;;;10.63;1.52;;;;;;;;;;5017910;28;20022;-72
2022/01/13 10:03:41;;;;;;;12.00;1.77;;;;;;;;;;5017769;28;20033;-71
2022/01/13 10:06:16;;;;;;;10.75;1.83;;;;;;;;;;5017624;28;20018;-71
2022/01/13 10:08:43;;;;;;;10.63;1.60;;;;;;;;;;5017089;28;20078;-71
2022/01/13 10:11:44;;;;;;;12.32;1.95;;;;;;;;;;5001126;28;20049;-72
2022/01/13 10:16:56;;;;;;;6.57;1.20;;;;;;;;;;5021274;28;20022;-71
2022/01/13 10:19:30;;;;;;;9.50;2.33;;;;;;;;;;5021290;28;20018;-72
2022/01/13 10:21:57;;;;;;;9.10;1.30;;;;;;;;;;5021511;28;20006;-72
2022/01/13 10:24:28;;;;;;;10.38;1.48;;;;;;;;;;5021463;28;20018;-71
2022/01/13 10:27:05;;;;;;;16.25;1.70;;;;;;;;;;5021309;28;20010;-72
2022/01/13 10:29:50;;;;;;;8.55;1.02;;;;;;;;;;5004394;28;20018;-72
2022/01/13 10:32:31;;;;;;;8.27;1.50;;;;;;;;;;5021154;28;20042;-72
2022/01/13 10:35:14;;;;;;;8.18;1.77;;;;;;;;;;5004442;28;20037;-72
2022/01/13 10:37:40;;;;;;;8.18;1.40;;;;;;;;;;5020956;28;20014;-72
2022/01/13 10:40:10;;;;;;;11.60;1.80;;;;;;;;;;5003787;28;20025;-74
2022/01/13 10:45:20;;;;;;;9.93;1.42;;;;;;;;;;5040670;28;20049;-71
2022/01/13 10:48:02;;;;;;;12.93;1.88;;;;;;;;;;5040596;28;20037;-72
2022/01/13 10:50:33;;;;;;;9.63;1.95;;;;;;;;;;5023316;28;20046;-72
2022/01/13 10:53:09;;;;;;;15.32;2.25;;;;;;;;;;5039967;28;20009;-72
2022/01/13 10:55:42;;;;;;;4.15;1.20;;;;;;;;;;5040594;28;20025;-72
2022/01/13 10:58:08;;;;;;;10.32;1.17;;;;;;;;;;5038699;28;20040;-71
2022/01/13 11:00:35;;;;;;;9.35;0.95;;;;;;;;;;5020306;28;20090;-71
2022/01/13 11:03:04;;;;;;;9.30;1.30;;;;;;;;;;5020282;28;20021;-72
2022/01/13 11:05:30;;;;;;;14.27;2.28;;;;;;;;;;5003298;28;20010;-72
2022/01/13 11:08:01;;;;;;;12.15;3.28;;;;;;;;;;5003026;28;20007;-72
2022/01/13 11:10:26;;;;;;;9.30;1.83;;;;;;;;;;5020103;28;20041;-72
2022/01/13 11:12:58;;;;;;;10.07;1.25;;;;;;;;;;5003235;28;20015;-72
2022/01/13 11:15:25;;;;;;;10.18;1.20;;;;;;;;;;5020553;28;20022;-72
2022/01/13 11:17:53;;;;;;;10.80;1.80;;;;;;;;;;5003438;28;20015;-72
2022/01/13 11:20:22;;;;;;;5.72;1.52;;;;;;;;;;5019726;28;20018;-73
2022/01/13 11:22:52;;;;;;;7.72;1.13;;;;;;;;;;5020495;28;20030;-72
2022/01/13 11:25:23;;;;;;;6.38;1.13;;;;;;;;;;5019662;28;20056;-72
2022/01/13 11:27:50;;;;;;;10.50;1.50;;;;;;;;;;5019830;28;20018;-72
2022/01/13 11:30:17;;;;;;;11.38;1.75;;;;;;;;;;5020285;28;20014;-71
2022/01/13 11:32:44;;;;;;;7.18;1.35;;;;;;;;;;5020213;28;20022;-72
2022/01/13 11:35:31;;;;;;;13.15;1.77;;;;;;;;;;5019624;28;20014;-71
2022/01/13 11:38:00;;;;;;;7.40;1.35;;;;;;;;;;5013667;28;20034;-72
2022/01/13 11:40:28;;;;;;;3.92;1.15;;;;;;;;;;5019969;28;20045;-71
2022/01/13 11:42:58;;;;;;;10.05;1.88;;;;;;;;;;5015186;28;20042;-71
2022/01/13 11:45:24;;;;;;;11.55;1.90;;;;;;;;;;5011083;28;20010;-71
2022/01/13 11:48:15;;;;;;;9.10;1.38;;;;;;;;;;5022488;28;20013;-73
2022/01/13 11:50:48;;;;;;;10.75;1.88;;;;;;;;;;5038756;28;20025;-72
2022/01/13 11:53:21;;;;;;;9.57;2.55;;;;;;;;;;5033118;28;19998;-73
2022/01/13 11:55:56;;;;;;;13.40;2.53;;;;;;;;;;5002532;28;20014;-71
2022/01/13 11:58:26;;;;;;;9.73;1.80;;;;;;;;;;5018877;28;20022;-72
2022/01/13 12:00:53;;;;;;;10.35;2.40;;;;;;;;;;5019197;28;20037;-72
2022/01/13 12:03:32;;;;;;;8.75;1.77;;;;;;;;;;5019232;28;20014;-73
2022/01/13 12:05:58;;;;;;;8.88;1.48;;;;;;;;;;5019281;28;20084;-71
2022/01/13 12:08:35;;;;;;;13.88;1.83;;;;;;;;;;5002173;28;20049;-72
2022/01/13 12:11:00;;;;;;;7.43;1.35;;;;;;;;;;5018790;28;20014;-72
2022/01/13 12:13:28;;;;;;;7.47;1.58;;;;;;;;;;5018664;28;20064;-71
2022/01/13 12:15:55;;;;;;;8.48;1.30;;;;;;;;;;5019310;28;20018;-72
2022/01/13 12:18:43;;;;;;;9.02;1.20;;;;;;;;;;5019413;28;20026;-72
2022/01/13 12:21:32;;;;;;;13.13;2.08;;;;;;;;;;5018993;28;20006;-72
2022/01/13 12:23:59;;;;;;;8.30;1.33;;;;;;;;;;5018984;28;20018;-72
2022/01/13 12:26:30;;;;;;;7.43;1.25;;;;;;;;;;5019042;28;20041;-71
2022/01/13 12:29:21;;;;;;;12.77;1.85;;;;;;;;;;5018999;28;20067;-71
2022/01/13 12:31:54;;;;;;;7.20;1.02;;;;;;;;;;5018973;28;20018;-72
2022/01/13 12:34:32;;;;;;;;;;;;;;;;;;5019521;28;20028;-71
2022/01/13 12:37:09;;;;;;;12.63;1.50;;;;;;;;;;5018037;28;19897;-71
2022/01/13 12:39:39;;;;;;;9.52;1.65;;;;;;;;;;5018553;28;20041;-71
2022/01/13 12:42:16;;;;;;;10.20;1.58;;;;;;;;;;5018178;28;20066;-72
2022/01/13 12:47:26;;;;;;;5.78;1.30;;;;;;;;;;5018348;28;20029;-71
2022/01/13 12:49:53;;;;;;;9.40;1.58;;;;;;;;;;5018071;28;20070;-71
2022/01/13 12:52:23;;;;;;;11.23;1.75;;;;;;;;;;5033825;28;20022;-72
2022/01/13 12:54:50;;;;;;;9.63;1.65;;;;;;;;;;5018601;28;20054;-71
2022/01/13 12:57:16;;;;;;;6.80;1.85;;;;;;;;;;5018507;28;20074;-71
2022/01/13 12:59:42;;;;;;;15.23;3.47;;;;;;;;;;5018219;28;20041;-71
2022/01/13 13:02:08;;;;;;;10.02;2.72;;;;;;;;;;5018412;28;20018;-71
2022/01/13 13:04:37;;;;;;;14.80;3.97;;;;;;;;;;5018348;28;20038;-71
2022/01/13 13:07:03;;;;;;;13.25;3.83;;;;;;;;;;5018558;28;20041;-72
2022/01/13 13:09:30;;;;;;;12.02;3.15;;;;;;;;;;5018339;28;20014;-72
2022/01/13 13:12:00;;;;;;;10.57;2.25;;;;;;;;;;5001707;28;20037;-71
2022/01/13 13:15:39;;;;;;;9.82;2.05;;;;;;;;;;5018244;28;20018;-71
2022/01/13 13:17:37;;;;;;;8.27;1.83;;;;;;;;;;5017800;28;20050;-71
2022/01/13 13:20:05;;;;;;;9.57;1.60;;;;;;;;;;5017632;28;20046;-72
2022/01/13 13:22:44;;;;;;;6.88;1.10;;;;;;;;;;5017790;28;20018;-71
2022/01/13 13:25:10;;;;;;;5.93;1.13;;;;;;;;;;5018000;28;20020;-71
2022/01/13 13:27:35;;;;;;;10.88;1.17;;;;;;;;;;5017655;28;20019;-71
2022/01/13 13:30:01;;;;;;;7.28;2.80;;;;;;;;;;5017975;28;20038;-71
2022/01/13 13:32:26;;;;;;;6.15;1.33;;;;;;;;;;5017995;28;20010;-71
2022/01/13 13:34:51;;;;;;;5.93;1.27;;;;;;;;;;5000901;28;20045;-71
2022/01/13 13:37:17;;;;;;;6.30;1.30;;;;;;;;;;5017950;28;20025;-73
2022/01/13 13:39:42;;;;;;;7.47;1.20;;;;;;;;;;5017961;28;20018;-72
2022/01/13 13:42:12;;;;;;;10.75;1.40;;;;;;;;;;5017535;28;20031;-71
2022/01/13 13:44:41;;;;;;;5.43;0.98;;;;;;;;;;5017721;28;20057;-71
2022/01/13 13:47:18;;;;;;;3.33;1.00;;;;;;;;;;5019003;28;20041;-72
2022/01/13 13:49:51;;;;;;;9.95;1.83;;;;;;;;;;5021778;28;20034;-71
2022/01/13 13:52:18;;;;;;;6.78;1.38;;;;;;;;;;5021242;28;20105;-71
2022/01/13 13:54:48;;;;;;;10.48;2.15;;;;;;;;;;5004405;28;20010;-71
2022/01/13 13:57:16;;;;;;;9.00;1.52;;;;;;;;;;5021621;28;20070;-71
2022/01/13 13:59:46;;;;;;;3.13;0.70;;;;;;;;;;5021346;28;20114;-71
2022/01/13 14:02:19;;;;;;;6.32;1.40;;;;;;;;;;5021392;28;20003;-71
2022/01/13 14:04:53;;;;;;;8.77;1.88;;;;;;;;;;5021649;28;20018;-71
2022/01/13 14:07:47;;;;;;;8.80;1.20;;;;;;;;;;5021111;28;20040;-71
2022/01/13 14:10:13;;;;;;;10.15;1.30;;;;;;;;;;5011954;28;20030;-71
2022/01/13 14:12:40;;;;;;;8.18;1.33;;;;;;;;;;5021071;28;20029;-71
2022/01/13 14:15:29;;;;;;;5.70;1.45;;;;;;;;;;5021342;28;20026;-71
2022/01/13 14:18:17;;;;;;;7.00;1.15;;;;;;;;;;5004581;28;20021;-71
2022/01/13 14:20:48;;;;;;;7.38;1.58;;;;;;;;;;5021464;28;20086;-71
2022/01/13 14:23:19;;;;;;;7.32;1.13;;;;;;;;;;5021418;28;20014;-71
2022/01/13 14:25:47;;;;;;;8.18;1.63;;;;;;;;;;5020906;28;20006;-71
2022/01/13 14:28:21;;;;;;;4.60;1.35;;;;;;;;;;5020807;28;20021;-71
2022/01/13 14:30:48;;;;;;;10.15;1.67;;;;;;;;;;5020409;28;20018;-72
2022/01/13 14:33:17;;;;;;;8.10;1.55;;;;;;;;;;5003818;28;20090;-71
2022/01/13 14:35:46;;;;;;;8.38;1.17;;;;;;;;;;5021083;28;20038;-71
2022/01/13 14:38:13;;;;;;;10.02;1.60;;;;;;;;;;5021168;28;20024;-72
2022/01/13 14:40:47;;;;;;;5.15;1.05;;;;;;;;;;5003883;28;20018;-70
2022/01/13 14:43:21;;;;;;;8.25;1.48;;;;;;;;;;5020918;28;20027;-71
2022/01/13 14:46:06;;;;;;;;;;;;;;;;;;5021160;28;20017;-72
2022/01/13 14:48:33;;;;;;;8.70;1.42;;;;;;;;;;5000425;28;19941;-73
2022/01/13 14:51:06;;;;;;;13.38;1.88;;;;;;;;;;5020997;28;20018;-72
2022/01/13 14:53:32;;;;;;;7.32;1.25;;;;;;;;;;5036203;28;20010;-71
2022/01/13 14:55:57;;;;;;;7.93;1.15;;;;;;;;;;5020367;28;20038;-71
2022/01/13 14:58:22;;;;;;;6.95;1.20;;;;;;;;;;5002715;28;20014;-71
2022/01/13 15:00:48;;;;;;;7.75;1.13;;;;;;;;;;5020656;28;20034;-72
2022/01/13 15:03:13;;;;;;;8.25;1.08;;;;;;;;;;5003738;28;20006;-71
2022/01/13 15:05:39;;;;;;;10.55;1.00;;;;;;;;;;5003426;28;20010;-71
2022/01/13 15:08:04;;;;;;;6.72;1.27;;;;;;;;;;5020600;28;20025;-71
2022/01/13 15:10:30;;;;;;;7.20;0.93;;;;;;;;;;5020553;28;20082;-71